createdAt,value
2023-02-19T00:01:36.433Z,32.00
2023-02-19T00:04:22.782Z,32.50
2023-02-19T00:06:50.171Z,32.92
2023-02-19T00:09:19.343Z,34.20
2023-02-19T00:11:47.863Z,34.15
2023-02-19T00:14:17.760Z,33.17
2023-02-19T00:16:44.775Z,34.03
2023-02-19T00:19:17.849Z,34.55
2023-02-19T00:21:44.996Z,35.30
2023-02-19T00:24:13.476Z,36.25
2023-02-19T00:26:41.760Z,35.75
2023-02-19T00:29:13.098Z,36.47
2023-02-19T00:31:40.498Z,36.33
2023-02-19T00:34:08.035Z,35.85
2023-02-19T00:36:38.105Z,36.03
2023-02-19T00:39:06.708Z,36.67
2023-02-19T00:41:34.436Z,35.92
2023-02-19T00:44:06.584Z,37.25
2023-02-19T00:46:37.141Z,36.28
2023-02-19T00:49:06.653Z,37.35
2023-02-19T00:51:37.092Z,36.72
2023-02-19T00:54:05.661Z,37.25
2023-02-19T00:56:32.987Z,37.45
2023-02-19T00:58:59.917Z,37.20
2023-02-19T01:01:27.008Z,37.20
2023-02-19T01:03:54.047Z,36.92
2023-02-19T01:06:21.788Z,36.22
2023-02-19T01:08:49.389Z,37.30
2023-02-19T01:11:17.244Z,36.88
2023-02-19T01:13:44.796Z,36.58
2023-02-19T01:16:17.247Z,36.25
2023-02-19T01:18:45.809Z,36.20
2023-02-19T01:21:19.300Z,37.95
2023-02-19T01:23:46.464Z,36.78
2023-02-19T01:26:16.581Z,36.58
2023-02-19T01:28:43.882Z,38.13
2023-02-19T01:31:14.757Z,37.78
2023-02-19T01:33:46.398Z,37.63
2023-02-19T01:36:14.446Z,37.55
2023-02-19T01:38:41.635Z,37.88
2023-02-19T01:41:12.259Z,37.55
2023-02-19T01:43:59.830Z,37.70
2023-02-19T01:46:40.131Z,37.88
2023-02-19T01:49:35.843Z,37.85
2023-02-19T01:52:10.670Z,37.80
2023-02-19T01:54:40.233Z,37.67
2023-02-19T01:57:11.837Z,37.97
2023-02-19T01:59:39.371Z,37.90
2023-02-19T02:02:06.863Z,36.67
2023-02-19T02:04:34.805Z,36.38
2023-02-19T02:07:24.527Z,36.97
2023-02-19T02:10:10.738Z,37.38
2023-02-19T02:12:37.677Z,36.97
2023-02-19T02:15:05.246Z,37.17
2023-02-19T02:17:37.619Z,37.42
2023-02-19T02:20:33.621Z,37.15
2023-02-19T02:23:07.128Z,36.45
2023-02-19T02:25:52.927Z,36.58
2023-02-19T02:28:49.207Z,36.83
2023-02-19T02:31:49.990Z,37.25
2023-02-19T02:34:27.510Z,36.38
2023-02-19T02:36:56.876Z,36.33
2023-02-19T02:39:27.085Z,37.22
2023-02-19T02:42:17.683Z,36.75
2023-02-19T02:45:04.219Z,36.00
2023-02-19T02:47:43.418Z,36.47
2023-02-19T02:50:16.439Z,36.10
2023-02-19T02:53:03.930Z,37.28
2023-02-19T02:55:34.705Z,36.92
2023-02-19T02:58:02.795Z,36.05
2023-02-19T03:00:51.357Z,36.75
2023-02-19T03:03:22.366Z,36.67
2023-02-19T03:05:51.844Z,35.83
2023-02-19T03:08:30.366Z,36.30
2023-02-19T03:11:25.714Z,35.88
2023-02-19T03:14:19.061Z,36.75
2023-02-19T03:17:07.329Z,36.60
2023-02-19T03:19:41.071Z,35.58
2023-02-19T03:22:22.708Z,35.90
2023-02-19T03:25:23.387Z,35.53
2023-02-19T03:27:51.045Z,35.25
2023-02-19T03:30:25.750Z,34.60
2023-02-19T03:32:59.671Z,34.97
2023-02-19T03:35:31.751Z,34.47
2023-02-19T03:38:04.940Z,34.40
2023-02-19T03:40:38.720Z,35.33
2023-02-19T03:43:16.002Z,34.53
2023-02-19T03:45:58.137Z,34.47
2023-02-19T03:48:35.925Z,35.17
2023-02-19T03:51:15.006Z,34.35
2023-02-19T03:53:41.944Z,34.28
2023-02-19T03:56:32.321Z,34.30
2023-02-19T03:59:19.200Z,33.97
2023-02-19T04:02:18.008Z,34.45
2023-02-19T04:04:51.586Z,33.97
2023-02-19T04:07:18.853Z,34.15
2023-02-19T04:09:49.083Z,33.70
2023-02-19T04:12:17.727Z,33.28
2023-02-19T04:15:08.121Z,32.58
2023-02-19T04:17:39.424Z,31.35
2023-02-19T04:20:10.116Z,31.65
2023-02-19T04:22:38.868Z,32.55
2023-02-19T04:25:06.364Z,32.08
2023-02-19T04:27:37.905Z,31.45
2023-02-19T04:30:07.242Z,30.65
2023-02-19T04:32:34.249Z,30.83
2023-02-19T04:35:01.219Z,31.35
2023-02-19T04:37:28.229Z,31.80
2023-02-19T04:39:55.202Z,30.77
2023-02-19T04:42:22.218Z,30.30
2023-02-19T04:44:49.145Z,30.80
2023-02-19T04:47:17.911Z,30.38
2023-02-19T04:49:45.466Z,29.67
2023-02-19T04:52:12.793Z,30.95
2023-02-19T04:54:39.773Z,29.90
2023-02-19T04:57:06.698Z,29.45
2023-02-19T04:59:33.701Z,29.08
2023-02-19T05:02:00.822Z,28.77
2023-02-19T05:04:27.908Z,31.10
2023-02-19T05:06:54.952Z,34.08
2023-02-19T05:09:21.923Z,29.17
2023-02-19T05:11:48.915Z,28.13
2023-02-19T05:14:17.233Z,28.63
2023-02-19T05:16:44.223Z,28.08
2023-02-19T05:19:14.002Z,29.55
2023-02-19T05:21:41.126Z,28.42
2023-02-19T05:24:08.458Z,28.92
2023-02-19T05:26:36.153Z,27.65
2023-02-19T05:29:03.853Z,29.00
2023-02-19T05:31:33.767Z,32.65
2023-02-19T05:34:00.860Z,30.30
2023-02-19T05:36:28.223Z,28.42
2023-02-19T05:38:57.178Z,28.75
2023-02-19T05:41:27.424Z,28.08
2023-02-19T05:43:55.693Z,28.88
2023-02-19T05:46:25.535Z,27.90
2023-02-19T05:48:53.339Z,28.73
2023-02-19T05:51:22.254Z,28.30
2023-02-19T05:53:49.851Z,28.73
2023-02-19T05:56:31.533Z,28.25
2023-02-19T05:58:59.688Z,28.30
2023-02-19T06:01:28.593Z,28.58
2023-02-19T06:03:57.622Z,28.75
2023-02-19T06:06:25.998Z,28.67
2023-02-19T06:08:53.601Z,27.70
2023-02-19T06:11:20.984Z,28.42
2023-02-19T06:13:49.484Z,27.25
2023-02-19T06:16:22.183Z,27.98
2023-02-19T06:18:49.868Z,28.02
2023-02-19T06:21:17.914Z,29.23
2023-02-19T06:23:45.536Z,29.35
2023-02-19T06:26:15.558Z,27.80
2023-02-19T06:28:42.961Z,28.52
2023-02-19T06:31:11.262Z,27.88
2023-02-19T06:33:42.521Z,28.98
2023-02-19T06:36:13.816Z,27.83
2023-02-19T06:38:41.237Z,29.10
2023-02-19T06:41:10.062Z,30.92
2023-02-19T06:43:37.573Z,28.08
2023-02-19T06:46:06.432Z,28.63
2023-02-19T06:48:34.029Z,27.90
2023-02-19T06:51:01.402Z,26.73
2023-02-19T06:53:28.483Z,24.92
2023-02-19T06:55:59.842Z,25.60
2023-02-19T06:58:27.797Z,25.35
2023-02-19T07:00:55.180Z,25.13
2023-02-19T07:03:22.525Z,25.02
2023-02-19T07:05:50.166Z,24.77
2023-02-19T07:08:17.515Z,25.05
2023-02-19T07:10:45.829Z,24.90
2023-02-19T07:13:12.905Z,24.05
2023-02-19T07:15:40.017Z,23.02
2023-02-19T07:18:10.572Z,24.90
2023-02-19T07:20:38.033Z,25.08
2023-02-19T07:23:05.034Z,24.23
2023-02-19T07:25:32.071Z,25.17
2023-02-19T07:27:59.072Z,25.10
2023-02-19T07:30:26.230Z,25.45
2023-02-19T07:32:53.192Z,26.00
2023-02-19T07:35:20.131Z,23.63
2023-02-19T07:37:47.129Z,22.13
2023-02-19T07:40:14.254Z,21.80
2023-02-19T07:42:41.278Z,21.38
2023-02-19T07:45:08.488Z,21.58
2023-02-19T07:47:35.637Z,21.20
2023-02-19T07:50:02.651Z,22.20
2023-02-19T07:52:29.747Z,22.60
2023-02-19T07:54:56.785Z,21.85
2023-02-19T07:57:23.828Z,21.55
2023-02-19T07:59:51.082Z,21.50
2023-02-19T08:02:39.125Z,25.25
2023-02-19T08:05:06.795Z,21.55
2023-02-19T08:07:37.352Z,21.98
2023-02-19T08:10:24.317Z,21.63
2023-02-19T08:13:17.691Z,21.38
2023-02-19T08:15:45.733Z,22.77
2023-02-19T08:18:14.116Z,22.48
2023-02-19T08:20:41.467Z,20.92
2023-02-19T08:23:09.384Z,21.75
2023-02-19T08:25:36.860Z,21.58
2023-02-19T08:28:04.195Z,21.70
2023-02-19T08:30:33.424Z,22.00
2023-02-19T08:33:02.391Z,23.10
2023-02-19T08:35:29.929Z,22.33
2023-02-19T08:37:58.831Z,22.95
2023-02-19T08:40:26.484Z,23.05
2023-02-19T08:42:53.691Z,22.33
2023-02-19T08:45:20.686Z,21.80
2023-02-19T08:47:47.719Z,22.00
2023-02-19T08:50:14.773Z,21.52
2023-02-19T08:52:41.706Z,22.50
2023-02-19T08:55:08.866Z,21.83
2023-02-19T08:57:37.742Z,21.42
2023-02-19T09:00:06.314Z,21.50
2023-02-19T09:02:33.585Z,20.88
2023-02-19T09:05:00.835Z,20.92
2023-02-19T09:07:28.399Z,21.10
2023-02-19T09:09:55.492Z,20.98
2023-02-19T09:12:23.488Z,21.10
2023-02-19T09:14:50.644Z,21.58
2023-02-19T09:17:17.687Z,21.55
2023-02-19T09:19:44.695Z,22.23
2023-02-19T09:22:11.732Z,21.65
2023-02-19T09:24:38.700Z,21.63
2023-02-19T09:27:05.807Z,21.73
2023-02-19T09:29:34.555Z,21.20
2023-02-19T09:32:02.058Z,73.18
2023-02-19T09:34:29.478Z,40.92
2023-02-19T09:36:56.491Z,34.33
2023-02-19T09:39:23.554Z,20.83
2023-02-19T09:41:55.053Z,20.17
2023-02-19T09:44:28.345Z,20.55
2023-02-19T09:46:56.263Z,19.58
2023-02-19T09:49:33.896Z,20.15
2023-02-19T09:52:15.412Z,19.70
2023-02-19T09:54:43.068Z,20.00
2023-02-19T09:57:15.792Z,19.70
2023-02-19T09:59:51.867Z,18.88
2023-02-19T10:02:21.455Z,18.20
2023-02-19T10:04:51.247Z,19.35
2023-02-19T10:07:27.029Z,18.33
2023-02-19T10:10:13.652Z,18.15
2023-02-19T10:12:50.663Z,18.70
2023-02-19T10:15:26.475Z,19.35
2023-02-19T10:17:53.648Z,18.75
2023-02-19T10:20:24.714Z,19.98
2023-02-19T10:23:02.561Z,19.38
2023-02-19T10:25:31.151Z,19.63
2023-02-19T10:28:02.358Z,18.63
2023-02-19T10:30:33.456Z,18.90
2023-02-19T10:33:04.159Z,18.67
2023-02-19T10:35:35.545Z,18.98
2023-02-19T10:38:04.138Z,17.98
2023-02-19T10:40:31.277Z,18.73
2023-02-19T10:43:01.877Z,17.67
2023-02-19T10:45:53.153Z,17.80
2023-02-19T10:48:42.452Z,17.17
2023-02-19T10:51:13.463Z,17.52
2023-02-19T10:53:42.494Z,16.80
2023-02-19T10:56:15.838Z,16.75
2023-02-19T10:58:45.110Z,17.63
2023-02-19T11:01:21.163Z,17.27
2023-02-19T11:03:53.281Z,16.23
2023-02-19T11:06:25.908Z,17.33
2023-02-19T11:09:00.815Z,17.77
2023-02-19T11:11:35.611Z,18.30
2023-02-19T11:14:13.057Z,18.67
2023-02-19T11:16:47.091Z,18.70
2023-02-19T11:19:28.673Z,19.08
2023-02-19T11:21:56.271Z,18.67
2023-02-19T11:24:34.277Z,18.83
2023-02-19T11:27:07.700Z,18.63
2023-02-19T11:29:35.538Z,18.90
2023-02-19T11:32:21.068Z,19.10
2023-02-19T11:34:50.894Z,19.13
2023-02-19T11:37:21.824Z,18.95
2023-02-19T11:39:58.896Z,18.63
2023-02-19T11:42:53.630Z,18.20
2023-02-19T11:46:02.866Z,18.05
2023-02-19T11:48:49.801Z,17.70
2023-02-19T11:51:31.166Z,16.50
2023-02-19T11:54:18.546Z,15.18
2023-02-19T11:56:53.625Z,16.40
2023-02-19T11:59:36.453Z,16.60
2023-02-19T12:02:40.934Z,16.80
2023-02-19T12:05:14.134Z,18.50
2023-02-19T12:08:17.171Z,19.53
2023-02-19T12:10:44.059Z,20.02
2023-02-19T12:13:34.855Z,20.00
2023-02-19T12:16:16.761Z,20.00
2023-02-19T12:19:02.930Z,19.17
2023-02-19T12:21:54.453Z,19.70
2023-02-19T12:24:24.104Z,19.27
2023-02-19T12:27:13.042Z,19.13
2023-02-19T12:30:03.034Z,18.70
2023-02-19T12:32:44.253Z,17.48
2023-02-19T12:35:17.294Z,17.77
2023-02-19T12:38:09.174Z,17.75
2023-02-19T12:40:50.569Z,16.50
2023-02-19T12:43:26.279Z,15.10
2023-02-19T12:45:53.269Z,15.32
2023-02-19T12:48:35.630Z,15.32
2023-02-19T12:51:27.038Z,15.27
2023-02-19T12:54:02.714Z,14.20
2023-02-19T12:57:04.893Z,14.55
2023-02-19T12:59:45.747Z,13.80
2023-02-19T13:02:22.658Z,14.63
2023-02-19T13:05:01.524Z,13.93
2023-02-19T13:07:49.515Z,14.52
2023-02-19T13:10:19.589Z,15.38
2023-02-19T13:12:48.657Z,14.55
2023-02-19T13:15:36.854Z,14.90
2023-02-19T13:18:07.797Z,14.65
2023-02-19T13:20:39.037Z,15.32
2023-02-19T13:23:43.993Z,14.35
2023-02-19T13:26:16.571Z,15.20
2023-02-19T13:28:49.216Z,13.77
2023-02-19T13:31:31.252Z,14.55
2023-02-19T13:34:28.373Z,14.55
2023-02-19T13:36:56.356Z,14.70
2023-02-19T13:39:23.572Z,14.82
2023-02-19T13:41:55.987Z,16.83
2023-02-19T13:44:27.153Z,16.35
2023-02-19T13:46:54.169Z,14.70
2023-02-19T13:49:33.984Z,14.50
2023-02-19T13:52:22.053Z,13.88
2023-02-19T13:54:49.081Z,14.30
2023-02-19T13:57:24.594Z,14.18
2023-02-19T13:59:56.405Z,13.80
2023-02-19T14:02:23.416Z,13.27
2023-02-19T14:04:57.659Z,13.38
2023-02-19T14:09:54.840Z,13.40
2023-02-19T14:12:23.005Z,12.88
2023-02-19T14:14:53.147Z,12.80
2023-02-19T14:17:41.994Z,13.57
2023-02-19T14:20:17.775Z,12.60
2023-02-19T14:22:47.883Z,13.40
2023-02-19T14:25:35.979Z,14.48
2023-02-19T14:28:35.596Z,14.40
2023-02-19T14:31:17.931Z,14.10
2023-02-19T14:33:49.838Z,14.30
2023-02-19T14:36:48.688Z,14.57
2023-02-19T14:39:25.885Z,14.30
2023-02-19T14:41:59.326Z,13.98
2023-02-19T14:44:31.036Z,14.98
2023-02-19T14:47:05.389Z,14.73
2023-02-19T14:49:42.740Z,14.00
2023-02-19T14:52:26.689Z,13.70
2023-02-19T14:55:00.588Z,13.90
2023-02-19T14:57:36.245Z,13.45
2023-02-19T15:00:33.929Z,13.80
2023-02-19T15:03:02.724Z,13.70
2023-02-19T15:05:32.974Z,13.40
2023-02-19T15:08:08.739Z,13.30
2023-02-19T15:10:36.850Z,13.30
2023-02-19T15:13:12.190Z,13.68
2023-02-19T15:15:43.440Z,13.73
2023-02-19T15:18:22.379Z,13.57
2023-02-19T15:20:50.782Z,14.48
2023-02-19T15:23:23.847Z,13.88
2023-02-19T15:25:51.689Z,13.65
2023-02-19T15:28:25.175Z,13.85
2023-02-19T15:31:15.890Z,14.02
2023-02-19T15:33:53.056Z,13.50
2023-02-19T15:36:34.836Z,13.65
2023-02-19T15:39:02.756Z,13.75
2023-02-19T15:41:34.784Z,14.00
2023-02-19T15:44:07.580Z,14.23
2023-02-19T15:46:37.030Z,14.05
2023-02-19T15:49:31.337Z,14.27
2023-02-19T15:52:05.858Z,13.90
2023-02-19T15:55:01.962Z,13.77
2023-02-19T15:57:35.485Z,14.05
2023-02-19T16:00:20.070Z,13.93
2023-02-19T16:02:48.904Z,13.43
2023-02-19T16:05:24.970Z,13.45
2023-02-19T16:08:19.963Z,13.82
2023-02-19T16:11:01.997Z,14.30
2023-02-19T16:13:32.083Z,14.15
2023-02-19T16:16:21.902Z,14.68
2023-02-19T16:18:51.254Z,14.52
2023-02-19T16:21:22.891Z,14.65
2023-02-19T16:24:00.161Z,17.55
2023-02-19T16:26:28.159Z,16.70
2023-02-19T16:28:55.871Z,17.17
2023-02-19T16:31:23.839Z,19.38
2023-02-19T16:33:51.669Z,18.38
2023-02-19T16:36:41.943Z,18.60
2023-02-19T16:39:09.364Z,18.65
2023-02-19T16:41:48.389Z,17.98
2023-02-19T16:44:21.161Z,18.60
2023-02-19T16:46:49.697Z,18.25
2023-02-19T16:49:17.010Z,17.90
2023-02-19T16:51:45.729Z,17.15
2023-02-19T16:54:13.336Z,16.63
2023-02-19T16:56:40.572Z,16.67
2023-02-19T16:59:08.099Z,16.05
2023-02-19T17:01:36.287Z,16.00
2023-02-19T17:04:06.881Z,16.20
2023-02-19T17:06:34.941Z,16.00
2023-02-19T17:09:01.924Z,16.23
2023-02-19T17:11:28.908Z,16.00
2023-02-19T17:13:55.895Z,16.27
2023-02-19T17:16:27.344Z,16.02
2023-02-19T17:18:55.571Z,15.73
2023-02-19T17:21:26.180Z,16.05
2023-02-19T17:23:54.198Z,15.60
2023-02-19T17:26:24.214Z,15.68
2023-02-19T17:28:51.275Z,16.23
2023-02-19T17:31:18.763Z,16.27
2023-02-19T17:33:46.941Z,16.35
2023-02-19T17:36:23.013Z,15.63
2023-02-19T17:38:50.126Z,15.82
2023-02-19T17:41:17.101Z,16.55
2023-02-19T17:43:44.236Z,16.23
2023-02-19T17:46:16.026Z,15.60
2023-02-19T17:48:43.182Z,15.75
2023-02-19T17:51:10.610Z,16.63
2023-02-19T17:53:37.870Z,15.88
2023-02-19T17:56:05.451Z,15.98
2023-02-19T17:58:32.453Z,15.75
2023-02-19T18:00:59.456Z,15.45
2023-02-19T18:03:26.522Z,15.70
2023-02-19T18:05:53.569Z,15.98
2023-02-19T18:08:20.580Z,15.75
2023-02-19T18:10:47.595Z,16.50
2023-02-19T18:13:14.541Z,16.10
2023-02-19T18:15:41.567Z,16.15
2023-02-19T18:18:09.869Z,16.02
2023-02-19T18:20:36.970Z,15.75
2023-02-19T18:23:04.202Z,15.68
2023-02-19T18:25:31.187Z,15.80
2023-02-19T18:27:59.234Z,15.73
2023-02-19T18:30:26.313Z,15.88
2023-02-19T18:32:53.386Z,15.65
2023-02-19T18:35:21.153Z,16.13
2023-02-19T18:37:52.754Z,16.02
2023-02-19T18:40:27.437Z,16.70
2023-02-19T18:42:54.597Z,16.25
2023-02-19T18:45:21.914Z,16.08
2023-02-19T18:47:49.985Z,15.32
2023-02-19T18:50:19.103Z,16.02
2023-02-19T18:52:46.236Z,15.95
2023-02-19T18:55:13.664Z,15.80
2023-02-19T18:57:40.674Z,16.40
2023-02-19T19:00:08.729Z,15.68
2023-02-19T19:02:48.380Z,16.25
2023-02-19T19:05:23.541Z,16.60
2023-02-19T19:10:18.997Z,16.38
2023-02-19T19:12:46.034Z,16.45
2023-02-19T19:15:13.066Z,16.38
2023-02-19T19:17:40.662Z,16.40
2023-02-19T19:20:08.975Z,16.45
2023-02-19T19:22:35.950Z,17.08
2023-02-19T19:25:03.058Z,16.17
2023-02-19T19:27:30.023Z,16.35
2023-02-19T19:29:57.082Z,17.30
2023-02-19T19:32:24.175Z,17.83
2023-02-19T19:34:51.472Z,16.85
2023-02-19T19:37:18.419Z,17.13
2023-02-19T19:39:45.397Z,16.80
2023-02-19T19:42:12.402Z,17.48
2023-02-19T19:44:39.511Z,17.08
2023-02-19T19:47:06.485Z,17.20
2023-02-19T19:49:33.581Z,17.40
2023-02-19T19:52:01.352Z,16.90
2023-02-19T19:54:28.793Z,17.23
2023-02-19T19:56:55.845Z,16.80
2023-02-19T19:59:23.211Z,17.20
2023-02-19T20:01:57.188Z,16.95
2023-02-19T20:06:52.354Z,16.55
2023-02-19T20:09:20.634Z,16.95
2023-02-19T20:11:50.175Z,16.52
2023-02-19T20:14:18.562Z,16.55
2023-02-19T20:16:47.711Z,17.40
2023-02-19T20:19:16.367Z,16.77
2023-02-19T20:21:51.522Z,16.90
2023-02-19T20:24:25.997Z,16.42
2023-02-19T20:26:58.771Z,16.77
2023-02-19T20:29:31.474Z,16.95
2023-02-19T20:32:00.282Z,16.52
2023-02-19T20:34:27.557Z,16.50
2023-02-19T20:36:54.969Z,16.90
2023-02-19T20:39:22.528Z,16.85
2023-02-19T20:41:51.749Z,16.55
2023-02-19T20:44:19.657Z,16.40
2023-02-19T20:46:48.959Z,16.90
2023-02-19T20:49:18.291Z,17.10
2023-02-19T20:51:50.205Z,16.80
2023-02-19T20:54:18.019Z,16.90
2023-02-19T20:56:48.841Z,16.85
2023-02-19T20:59:17.529Z,17.10
2023-02-19T21:01:44.855Z,17.38
2023-02-19T21:04:12.266Z,17.00
2023-02-19T21:06:39.415Z,17.02
2023-02-19T21:09:06.616Z,17.17
2023-02-19T21:11:34.213Z,17.75
2023-02-19T21:14:01.413Z,17.55
2023-02-19T21:16:32.407Z,17.27
2023-02-19T21:19:00.148Z,17.10
2023-02-19T21:21:27.608Z,17.13
2023-02-19T21:23:55.912Z,16.70
2023-02-19T21:26:23.935Z,17.38
2023-02-19T21:28:52.033Z,17.10
2023-02-19T21:31:20.059Z,17.40
2023-02-19T21:33:47.611Z,17.02
2023-02-19T21:36:15.338Z,17.00
2023-02-19T21:38:42.319Z,17.35
2023-02-19T21:41:09.334Z,17.33
2023-02-19T21:43:36.369Z,17.63
2023-02-19T21:46:03.596Z,16.95
2023-02-19T21:48:30.672Z,16.85
2023-02-19T21:50:57.682Z,16.70
2023-02-19T21:53:24.646Z,17.08
2023-02-19T21:55:58.402Z,17.05
2023-02-19T21:58:26.393Z,17.40
2023-02-19T22:00:54.245Z,17.38
2023-02-19T22:03:21.339Z,17.20
2023-02-19T22:05:48.356Z,17.05
2023-02-19T22:08:17.508Z,17.10
2023-02-19T22:10:44.623Z,17.20
2023-02-19T22:13:11.758Z,16.75
2023-02-19T22:15:38.858Z,16.73
2023-02-19T22:18:06.060Z,17.08
2023-02-19T22:20:34.787Z,17.67
2023-02-19T22:23:01.839Z,17.10
2023-02-19T22:25:28.879Z,17.80
2023-02-19T22:27:56.041Z,17.98
2023-02-19T22:30:23.102Z,17.35
2023-02-19T22:32:50.230Z,17.45
2023-02-19T22:35:17.353Z,17.70
2023-02-19T22:37:44.330Z,17.23
2023-02-19T22:40:11.829Z,17.17
2023-02-19T22:42:38.849Z,18.08
2023-02-19T22:45:06.589Z,17.90
2023-02-19T22:47:33.638Z,17.88
2023-02-19T22:50:00.580Z,17.58
2023-02-19T22:52:28.238Z,18.42
2023-02-19T22:54:55.851Z,18.25
2023-02-19T22:57:22.953Z,18.42
2023-02-19T22:59:50.006Z,18.83
2023-02-19T23:02:17.466Z,18.77
2023-02-19T23:04:44.722Z,19.23
2023-02-19T23:07:11.725Z,19.23
2023-02-19T23:09:39.077Z,18.92
2023-02-19T23:12:08.841Z,19.52
2023-02-19T23:14:36.079Z,19.83
2023-02-19T23:17:03.258Z,19.35
2023-02-19T23:19:30.368Z,19.23
2023-02-19T23:21:57.652Z,19.45
2023-02-19T23:24:24.883Z,19.35
2023-02-19T23:26:53.926Z,19.88
2023-02-19T23:29:26.684Z,19.48
2023-02-19T23:31:54.907Z,19.88
2023-02-19T23:34:22.284Z,19.35
2023-02-19T23:36:50.666Z,19.65
2023-02-19T23:39:20.681Z,19.17
2023-02-19T23:41:52.944Z,19.13
2023-02-19T23:44:21.576Z,19.35
2023-02-19T23:46:48.936Z,19.95
2023-02-19T23:49:16.316Z,19.38
2023-02-19T23:51:43.699Z,19.73
2023-02-19T23:54:10.917Z,19.75
2023-02-19T23:56:37.982Z,19.58
2023-02-19T23:59:05.220Z,19.08
